Jordan, MN

12:35 PM CST on February 22, 2017 (GMT -0600)
Carver Bluffs, Carver Minnesota | | Change Station
Active Advisory: Winter Storm Watch

Elev 837 ft 44.75 °N, 93.65 °W | Updated 1 minute ago

Partly Cloudy
Partly Cloudy
50.1 °F
Feels Like 50.1 °F
N
2.0
Wind Variable Wind from NW

Today
High -- | Low -- °F
--% Chance of Precip.
Yesterday
High -- | Low -- °F
Precip. -- in
Pressure 29.56 in
Visibility 8.0 miles
Clouds Few 1600 ft
Scattered Clouds 10000 ft
Dew Point 46 °F
Humidity 86%
Rainfall 0.00 in
Snow Depth Not available.
7:03 AM 5:53 PM
Waning Crescent, 16% visible
SPECI KFCM 221812Z VRB03KT 8SM FEW016 SCT100 09/06 A2956 RMK AO2 T00940056
Pressure 29.56 in
Visibility 8.0 miles
Clouds Few 1600 ft
Scattered Clouds 10000 ft
Dew Point 46 °F
Humidity 86%
Rainfall 0.00 in
Snow Depth Not available.
7:03 AM 5:53 PM
Waning Crescent, 16% visible
SPECI KFCM 221812Z VRB03KT 8SM FEW016 SCT100 09/06 A2956 RMK AO2 T00940056

Get Your Daily Forecast Email!

Thanks for signing up!

Be on the lookout for a verification email in your inbox.

You'll start receiving the daily forecast at 8 AM.

×

10-Day Weather Forecast

Almanac

Astronomy

Feb. 22, 2017 Rise Set
Actual Time
Civil Twilight
Nautical Twilight
Astronomical Twilight
Moon
Length of Visible Light
Length of Day
Tomorrow will be .
, % of the Moon is Illuminated

Today's Extremes

State Highs State Lows

Community

WunderPhotos

Upload Photos

1,962,540 photos uploaded!

WunderBlog® & News

Nearby

Air Quality

  Air Quality AQ Index Pollutant
Not available.

Snow Depth

Station Depth Elevation

Earthquake Activity

City Distance Mag. Time & Date
Minimum magnitude displayed is 2.5.

Coastal Water Temperatures

Place Temperature

Stations

Nearby Weather Stations

Station Location Temp. Windchill Dew Point Humidity Wind Precip. Elev Updated Type
                   

Watches & Warnings

Winter Storm Watch
Issued: 4:07 AM CST Feb. 22, 2017 – National Weather Service

... Winter Storm Watch now in effect from Thursday evening through
Friday evening...

* timing... rain will turn to heavy snow Thursday evening and
continue through Friday.

* Snow accumulations... 6 to 12 inches are likely, with amounts
in excess of 12 inches possible.

* Winds... northeast to northwest 20 to 30 mph with gusts to 40
mph resulting in considerable blowing snow and possible
blizzard conditions.

Precautionary/preparedness actions...

A Winter Storm Watch means there is a potential for significant
snow... sleet... or ice accumulations that may impact travel.
Continue to monitor the latest forecasts.